Startpagina
METAR-TAF:

METAR-TAF

Vliegvelden :

Aéroport de Béziers Cap d'Agde en Languedoc

Béziers, Frankrijk

breedte: 43-19N, lengte: 003-21E, hoogte: 17 m

Actueel weer

Dit bericht is 41 minuten geleden gemaakt, om 01:00 UTC
Wind 2 kt uit variabele richting
Temperatuur 8°C
Vochtigheid 66%
Druk 1017 hPa
Zicht 10 km of meer
geen wolken onder 1500 m en geen cumulonimbus

METAR: LFMU 250100Z AUTO VRB02KT CAVOK 08/02 Q1017

Tijdstip: 02:41 (01:41 UTC)

Verwachting

Dit bericht is 11 uur en het 41 minuten geleden gemaakt, om 14:00 UTC
Verwachting geldig van 24 om 15 UTC tot 25 om 15 UTC
Wind 10 kt uit het westen
Zicht 10 km of meer
geen wolken onder 1500 m en geen cumulonimbus
Kans 30% :
Tijdelijke
van 25 om 03 UTC tot 25 om 06 UTC
Wind 15 kt uit het westen met uitschieters tot 25 kt

TAF: LFMU 241400Z 2415/2515 28010KT CAVOK PROB30 TEMPO 2503/2506 28015G25KT

Waarnemingen en weersverwachtingen van meer dan 4000 vliegvelden (METAR en TAF).

De beschikbare stations zijn de gele en rode punten op de kaart.

Ga met uw muis naar het station om de naam te zien.

Klik dan om waarnemingen en weersverwachtingen te zien.

kaart wijzigen: klik op de groene knoppen met een zwart kruis om in te zoomen, op de groene knop met een streepje om uit te zoomen of op de groene pijlen voor aangrenzende kaarten.


METAR-TAF: